Time;durP1;ratioP1;P1;durP2;ratioP2;P2;SDS_P1;SDS_P2;PMS_P1;PMS_P2;Temp;Humidity;BMP_temperature;BMP_pressure;BME280_temperature;BME280_humidity;BME280_pressure;Samples;Min_cycle;Max_cycle;Signal;HPM_P1;HPM_P2
2022/08/09 00:01:12;;;;;;;1.77;0.68;;;25.20;46.00;24.30;102348.00;;;;5078323;28;20040;-71
2022/08/09 00:03:58;;;;;;;1.63;0.90;;;25.20;46.10;24.30;102348.00;;;;5086077;28;20027;-71
2022/08/09 00:06:44;;;;;;;2.55;0.95;;;25.20;46.10;24.30;102345.00;;;;5082182;28;20066;-71
2022/08/09 00:09:30;;;;;;;1.15;0.70;;;25.20;46.10;24.30;102344.00;;;;5079628;28;20431;-70
2022/08/09 00:12:16;;;;;;;1.23;0.60;;;25.20;46.20;24.30;102336.00;;;;5089077;28;20035;-71
2022/08/09 00:15:02;;;;;;;4.60;1.05;;;25.20;46.20;24.30;102338.00;;;;5073592;28;20050;-71
2022/08/09 00:17:48;;;;;;;1.40;0.40;;;25.20;46.20;24.30;102341.00;;;;5085435;28;20031;-71
2022/08/09 00:20:34;;;;;;;0.90;0.60;;;25.10;46.30;24.30;102336.00;;;;5092646;28;20040;-71
2022/08/09 00:23:20;;;;;;;3.08;0.55;;;25.20;46.30;24.30;102339.00;;;;5084818;28;20116;-71
2022/08/09 00:26:07;;;;;;;0.80;0.55;;;25.20;46.40;24.30;102333.00;;;;5068205;28;20044;-71
2022/08/09 00:28:53;;;;;;;2.10;0.82;;;25.00;46.30;24.30;102346.00;;;;5077120;28;20043;-71
2022/08/09 00:31:39;;;;;;;1.38;0.60;;;25.10;46.30;24.30;102341.00;;;;5074933;28;20036;-71
2022/08/09 00:34:25;;;;;;;0.70;0.50;;;25.10;46.40;24.30;102347.00;;;;5095325;28;20040;-70
2022/08/09 00:37:11;;;;;;;1.80;0.57;;;25.10;46.40;24.30;102343.00;;;;5069410;28;20072;-71
2022/08/09 00:39:57;;;;;;;1.50;0.70;;;25.10;46.60;24.30;102346.00;;;;5071543;28;20040;-70
2022/08/09 00:42:44;;;;;;;1.40;0.85;;;25.10;46.60;24.30;102337.00;;;;5075938;28;20075;-70
2022/08/09 00:45:31;;;;;;;1.85;0.60;;;25.10;46.60;24.30;102347.00;;;;5092426;28;20049;-71
2022/08/09 00:48:17;;;;;;;0.73;0.55;;;25.10;46.70;24.20;102346.00;;;;5093326;28;20082;-70
2022/08/09 00:51:04;;;;;;;4.22;0.70;;;25.10;46.70;24.20;102344.00;;;;5073988;28;20405;-70
2022/08/09 00:53:50;;;;;;;;;;;25.10;46.70;24.20;102344.00;;;;5084009;28;20042;-70
2022/08/09 00:56:36;;;;;;;0.88;0.40;;;25.00;46.50;24.20;102341.00;;;;5080541;28;20185;-70
2022/08/09 00:59:22;;;;;;;1.20;0.47;;;25.10;46.60;24.20;102346.00;;;;5096919;28;20048;-71
2022/08/09 01:02:08;;;;;;;1.02;0.45;;;25.10;46.70;24.20;102343.00;;;;5085043;28;20312;-71
2022/08/09 01:05:09;;;;;;;1.70;0.57;;;25.10;46.70;24.20;102338.00;;;;5080236;28;20028;-71
2022/08/09 01:08:28;;;;;;;0.40;0.35;;;25.10;46.80;24.20;102340.00;;;;5071359;28;20036;-70
2022/08/09 01:11:54;;;;;;;0.82;0.82;;;25.00;46.80;24.20;102339.00;;;;5084046;28;20043;-70
2022/08/09 01:14:48;;;;;;;2.20;0.60;;;25.00;46.80;24.10;102341.00;;;;5096903;28;20560;-70
2022/08/09 01:17:59;;;;;;;0.60;0.50;;;25.00;46.90;24.10;102334.00;;;;5081029;28;20089;-70
2022/08/09 01:21:16;;;;;;;1.02;0.40;;;25.00;46.90;24.10;102335.00;;;;5069137;28;20040;-70
2022/08/09 01:24:38;;;;;;;1.73;0.80;;;25.00;47.00;24.10;102333.00;;;;5081260;28;20036;-70
2022/08/09 01:27:24;;;;;;;0.40;0.40;;;25.00;47.00;24.10;102339.00;;;;5071447;28;20040;-71
2022/08/09 01:30:10;;;;;;;1.25;0.63;;;25.00;47.70;24.10;102336.00;;;;5073245;28;20471;-70
2022/08/09 01:32:56;;;;;;;1.23;0.70;;;25.00;47.00;24.10;102330.00;;;;5078780;28;20047;-70
2022/08/09 01:35:49;;;;;;;1.15;0.70;;;24.90;47.00;24.10;102332.00;;;;5066726;28;20040;-70
2022/08/09 01:38:37;;;;;;;1.38;0.85;;;24.90;47.10;24.10;102343.00;;;;5082907;28;20036;-70
2022/08/09 01:41:27;;;;;;;1.40;1.00;;;24.90;47.10;24.10;102335.00;;;;5044139;28;20058;-71
2022/08/09 01:44:14;;;;;;;0.70;0.52;;;24.90;47.20;24.10;102342.00;;;;5067882;28;20609;-70
2022/08/09 01:47:01;;;;;;;0.65;0.65;;;24.90;47.20;24.10;102342.00;;;;5080908;28;20114;-70
2022/08/09 01:49:47;;;;;;;1.63;0.63;;;24.80;47.10;24.10;102349.00;;;;5069276;28;20118;-70
2022/08/09 01:52:33;;;;;;;1.63;0.60;;;24.90;47.30;24.10;102349.00;;;;5089160;28;20039;-70
2022/08/09 01:55:19;;;;;;;2.50;0.77;;;24.90;47.30;24.10;102352.00;;;;5062249;28;20036;-70
2022/08/09 01:58:05;;;;;;;0.50;0.50;;;24.90;47.20;24.10;102350.00;;;;5072220;28;20035;-71
2022/08/09 02:00:52;;;;;;;2.88;0.90;;;24.90;47.30;24.10;102345.00;;;;5064003;28;20149;-71
2022/08/09 02:03:41;;;;;;;1.47;0.60;;;24.90;47.30;24.10;102353.00;;;;5086241;28;20298;-71
2022/08/09 02:09:34;;;;;;;1.45;0.73;;;24.80;47.40;24.00;102353.00;;;;5066382;28;20097;-70
2022/08/09 02:12:20;;;;;;;;;;;24.80;47.40;24.00;102351.00;;;;5076348;28;20035;-70
2022/08/09 02:15:07;;;;;;;1.27;0.60;;;24.80;47.20;24.00;102360.00;;;;5082613;28;19958;-71
2022/08/09 02:17:53;;;;;;;0.70;0.60;;;24.80;47.30;24.00;102359.00;;;;5058184;28;20039;-71
2022/08/09 02:20:43;;;;;;;1.77;0.63;;;24.80;47.30;24.00;102361.00;;;;5067877;28;20048;-71
2022/08/09 02:23:39;;;;;;;1.55;0.70;;;24.80;47.40;24.00;102370.00;;;;5085159;28;20586;-71
2022/08/09 02:26:27;;;;;;;5.57;0.70;;;24.80;47.40;24.00;102367.00;;;;5080721;28;20043;-71
2022/08/09 02:29:26;;;;;;;1.00;0.60;;;24.80;47.50;24.00;102359.00;;;;5073680;28;20043;-71
2022/08/09 02:32:13;;;;;;;2.63;0.55;;;24.80;47.50;24.00;102369.00;;;;5069974;28;20038;-71
2022/08/09 02:35:02;;;;;;;0.40;0.40;;;24.80;47.50;24.00;102362.00;;;;5059427;28;20045;-71
2022/08/09 02:37:51;;;;;;;0.60;0.60;;;24.80;47.50;24.00;102356.00;;;;5077741;28;20020;-71
2022/08/09 02:40:37;;;;;;;1.15;0.57;;;24.80;47.60;24.00;102357.00;;;;5077055;28;20073;-71
2022/08/09 02:43:24;;;;;;;0.63;0.43;;;24.80;47.60;24.00;102359.00;;;;5069237;28;20051;-71
2022/08/09 02:46:10;;;;;;;0.80;0.80;;;24.70;47.50;24.00;102352.00;;;;5079054;28;20040;-71
2022/08/09 02:49:00;;;;;;;2.80;0.82;;;24.70;47.50;24.00;102356.00;;;;5083754;28;20032;-71
2022/08/09 02:51:50;;;;;;;1.13;0.70;;;24.70;47.50;24.00;102354.00;;;;5082727;28;20038;-71
2022/08/09 02:54:36;;;;;;;0.80;0.60;;;24.70;47.60;24.00;102346.00;;;;5068894;28;20051;-70
2022/08/09 02:57:22;;;;;;;1.20;0.60;;;24.70;47.60;24.00;102352.00;;;;5069043;28;20047;-70
2022/08/09 03:00:09;;;;;;;1.67;0.82;;;24.70;47.60;23.90;102345.00;;;;5056116;28;20040;-70
2022/08/09 03:02:55;;;;;;;0.97;0.80;;;24.70;47.70;23.90;102339.00;;;;5066234;28;20476;-70
2022/08/09 03:05:41;;;;;;;1.13;0.60;;;24.70;47.60;23.90;102344.00;;;;5062330;28;20063;-70
2022/08/09 03:08:27;;;;;;;1.45;0.73;;;24.70;47.60;23.90;102341.00;;;;5066621;28;20041;-70
2022/08/09 03:11:15;;;;;;;3.13;0.80;;;24.70;47.60;23.90;102350.00;;;;5064957;28;20094;-70
2022/08/09 03:14:01;;;;;;;0.95;0.70;;;24.70;47.60;23.90;102346.00;;;;5096114;28;20042;-70
2022/08/09 03:16:47;;;;;;;1.15;0.70;;;24.70;47.60;23.90;102347.00;;;;5080792;28;20442;-71
2022/08/09 03:19:33;;;;;;;2.05;0.75;;;24.70;47.60;23.90;102342.00;;;;5065922;28;20051;-70
2022/08/09 03:22:19;;;;;;;0.88;0.70;;;24.70;47.60;23.90;102340.00;;;;5084447;28;20428;-71
2022/08/09 03:25:07;;;;;;;1.20;0.70;;;24.70;47.60;23.90;102344.00;;;;5058679;28;20040;-70
2022/08/09 03:27:53;;;;;;;1.40;0.90;;;24.70;47.70;23.90;102354.00;;;;5051241;28;20128;-71
2022/08/09 03:30:39;;;;;;;0.80;0.70;;;24.60;47.70;23.90;102349.00;;;;5064314;28;20044;-70
2022/08/09 03:33:25;;;;;;;1.30;0.77;;;24.60;47.80;23.90;102352.00;;;;5066288;28;20050;-70
2022/08/09 03:36:11;;;;;;;1.02;0.60;;;24.60;47.90;23.90;102348.00;;;;5058091;28;20482;-70
2022/08/09 03:38:57;;;;;;;0.93;0.70;;;24.60;47.80;23.80;102352.00;;;;5081771;28;20032;-70
2022/08/09 03:41:43;;;;;;;1.35;0.80;;;24.60;47.80;23.80;102345.00;;;;5069467;28;20084;-70
2022/08/09 03:44:30;;;;;;;0.77;0.77;;;24.60;47.80;23.80;102348.00;;;;5087728;28;20036;-70
2022/08/09 03:47:16;;;;;;;0.73;0.73;;;24.50;47.70;23.80;102350.00;;;;5083198;28;20044;-71
2022/08/09 03:50:04;;;;;;;0.90;0.68;;;24.60;47.90;23.80;102350.00;;;;5080059;28;20032;-70
2022/08/09 03:52:50;;;;;;;0.93;0.60;;;24.60;47.90;23.80;102345.00;;;;5053394;28;20038;-70
2022/08/09 03:55:37;;;;;;;1.35;0.90;;;24.60;47.90;23.80;102340.00;;;;5066632;28;20043;-71
2022/08/09 03:58:23;;;;;;;1.15;0.60;;;24.60;47.90;23.80;102333.00;;;;5067317;28;20448;-71
2022/08/09 04:01:09;;;;;;;0.50;0.50;;;24.60;47.90;23.80;102340.00;;;;5078219;28;20040;-71
2022/08/09 04:03:55;;;;;;;1.25;0.80;;;24.50;47.90;23.80;102339.00;;;;5070189;28;20036;-71
2022/08/09 04:06:41;;;;;;;1.27;0.65;;;24.50;47.90;23.80;102339.00;;;;5072443;28;20073;-71
2022/08/09 04:09:27;;;;;;;0.73;0.70;;;24.50;48.00;23.80;102350.00;;;;5089786;28;20457;-71
2022/08/09 04:12:14;;;;;;;0.88;0.75;;;24.60;48.00;23.80;102347.00;;;;5068357;28;20104;-70
2022/08/09 04:15:00;;;;;;;1.73;0.98;;;24.50;47.90;23.80;102340.00;;;;5084949;28;20029;-70
2022/08/09 04:17:46;;;;;;;1.42;0.73;;;24.50;47.90;23.80;102343.00;;;;5086157;28;20035;-70
2022/08/09 04:20:33;;;;;;;0.82;0.73;;;24.50;47.90;23.80;102347.00;;;;5090461;28;20036;-70
2022/08/09 04:23:19;;;;;;;1.70;0.75;;;24.50;48.00;23.70;102346.00;;;;5082189;28;20496;-70
2022/08/09 04:26:05;;;;;;;1.77;0.80;;;24.50;48.00;23.70;102351.00;;;;5078900;28;20078;-70
2022/08/09 04:28:51;;;;;;;0.65;0.65;;;24.50;48.00;23.70;102350.00;;;;5094420;28;20401;-71
2022/08/09 04:31:37;;;;;;;1.17;0.70;;;24.50;48.00;23.70;102343.00;;;;5087509;28;20105;-71
2022/08/09 04:34:23;;;;;;;1.85;0.80;;;24.50;48.00;23.70;102345.00;;;;5076103;28;20037;-70
2022/08/09 04:37:10;;;;;;;1.45;0.90;;;24.50;48.00;23.70;102350.00;;;;5090605;28;20041;-70
2022/08/09 04:39:56;;;;;;;1.52;0.60;;;24.50;48.00;23.70;102355.00;;;;5089784;28;20040;-71
2022/08/09 04:42:42;;;;;;;1.38;0.70;;;24.50;48.00;23.70;102358.00;;;;5086191;28;20044;-70
2022/08/09 04:45:28;;;;;;;1.40;0.70;;;24.50;48.00;23.70;102364.00;;;;5096712;28;20058;-70
2022/08/09 04:48:14;;;;;;;3.10;1.35;;;24.40;48.00;23.70;102367.00;;;;5081712;28;20036;-70
2022/08/09 04:51:00;;;;;;;0.75;0.70;;;24.40;48.00;23.70;102362.00;;;;5068254;28;20455;-70
2022/08/09 04:53:46;;;;;;;3.95;1.05;;;24.50;48.00;23.70;102369.00;;;;5095967;28;20035;-71
2022/08/09 04:56:32;;;;;;;1.50;0.88;;;24.40;48.00;23.70;102369.00;;;;5088179;28;20401;-71
2022/08/09 04:59:18;;;;;;;2.85;1.00;;;24.40;48.00;23.70;102372.00;;;;5084739;28;20433;-70
2022/08/09 05:02:04;;;;;;;1.50;1.05;;;24.40;48.00;23.70;102377.00;;;;5083323;28;20039;-70
2022/08/09 05:04:50;;;;;;;1.35;0.98;;;24.40;48.00;23.70;102373.00;;;;5089358;28;20414;-70
2022/08/09 05:07:36;;;;;;;0.80;0.80;;;24.50;48.00;23.70;102382.00;;;;5089476;28;20051;-71
2022/08/09 05:10:23;;;;;;;1.98;1.05;;;24.40;48.10;23.70;102386.00;;;;5095066;28;20481;-70
2022/08/09 05:13:09;;;;;;;1.15;0.90;;;24.40;48.10;23.70;102386.00;;;;5086893;28;20044;-70
2022/08/09 05:15:55;;;;;;;0.98;0.80;;;24.40;48.10;23.70;102383.00;;;;5081378;28;20031;-70
2022/08/09 05:18:41;;;;;;;2.13;0.88;;;24.40;48.10;23.70;102395.00;;;;5095451;28;20035;-71
2022/08/09 05:21:27;;;;;;;1.65;1.05;;;24.40;48.10;23.70;102392.00;;;;5070372;28;20047;-70
2022/08/09 05:24:14;;;;;;;1.15;0.90;;;24.40;48.10;23.70;102392.00;;;;5059637;28;20046;-70
2022/08/09 05:27:00;;;;;;;1.33;0.80;;;24.40;48.20;23.70;102394.00;;;;5087469;28;20110;-70
2022/08/09 05:29:49;;;;;;;1.10;0.70;;;24.40;48.20;23.70;102399.00;;;;5098562;28;20044;-71
2022/08/09 05:32:35;;;;;;;1.08;0.80;;;24.40;48.20;23.70;102400.00;;;;5083134;28;20047;-71
2022/08/09 05:35:21;;;;;;;0.90;0.82;;;24.40;48.20;23.70;102406.00;;;;5057659;28;20044;-71
2022/08/09 05:38:07;;;;;;;1.42;1.00;;;24.40;48.10;23.70;102415.00;;;;5088314;28;20043;-71
2022/08/09 05:40:53;;;;;;;1.08;0.98;;;24.40;48.10;23.70;102403.00;;;;5082865;28;20401;-70
2022/08/09 05:43:39;;;;;;;2.47;1.20;;;24.40;48.10;23.70;102406.00;;;;5084120;28;20087;-71
2022/08/09 05:46:25;;;;;;;6.60;1.83;;;24.40;48.00;23.70;102408.00;;;;5084546;28;20044;-71
2022/08/09 05:49:11;;;;;;;8.88;1.80;;;24.40;48.00;23.70;102405.00;;;;5090566;28;20052;-71
2022/08/09 05:51:57;;;;;;;9.52;1.48;;;24.50;48.00;23.60;102416.00;;;;5089333;28;20040;-71
2022/08/09 05:54:43;;;;;;;11.80;2.25;;;24.40;48.00;23.70;102417.00;;;;5096570;28;20505;-70
2022/08/09 05:57:29;;;;;;;12.90;2.58;;;24.50;48.10;23.70;102416.00;;;;5094387;28;20287;-71
2022/08/09 06:00:15;;;;;;;13.30;1.90;;;24.40;48.20;23.60;102414.00;;;;5092126;28;20466;-71
2022/08/09 06:03:02;;;;;;;8.82;2.25;;;24.40;48.10;23.70;102414.00;;;;5091857;28;20040;-71
2022/08/09 06:05:48;;;;;;;11.02;2.15;;;24.50;48.20;23.70;102416.00;;;;5095607;28;20036;-71
2022/08/09 06:08:34;;;;;;;10.50;2.03;;;24.40;48.20;23.70;102414.00;;;;5094925;28;20048;-71
2022/08/09 06:11:20;;;;;;;9.63;2.40;;;24.50;48.30;23.70;102415.00;;;;5084892;28;20047;-71
2022/08/09 06:14:06;;;;;;;11.82;2.05;;;24.50;48.30;23.60;102409.00;;;;5077140;28;20440;-70
2022/08/09 06:16:54;;;;;;;6.38;2.08;;;24.50;48.30;23.70;102406.00;;;;5094354;28;20036;-71
2022/08/09 06:19:40;;;;;;;16.35;2.45;;;24.50;48.30;23.70;102416.00;;;;5085149;28;20040;-70
2022/08/09 06:22:26;;;;;;;5.82;2.00;;;24.50;48.40;23.70;102406.00;;;;5084260;28;20051;-71
2022/08/09 06:25:12;;;;;;;9.50;2.03;;;24.50;48.40;23.70;102411.00;;;;5090407;28;20035;-71
2022/08/09 06:27:58;;;;;;;4.90;1.80;;;24.50;48.40;23.70;102414.00;;;;5093139;28;20094;-70
2022/08/09 06:30:44;;;;;;;5.85;1.83;;;24.50;48.40;23.70;102416.00;;;;5090068;28;20610;-71
2022/08/09 06:33:30;;;;;;;9.65;2.00;;;24.50;48.40;23.70;102417.00;;;;5098670;28;20421;-71
2022/08/09 06:36:16;;;;;;;4.35;2.30;;;24.50;48.40;23.70;102421.00;;;;5089470;28;20045;-71
2022/08/09 06:39:02;;;;;;;9.80;2.50;;;24.50;48.40;23.70;102427.00;;;;5085898;28;20043;-70
2022/08/09 06:41:48;;;;;;;6.72;2.40;;;24.60;48.50;23.70;102419.00;;;;5084105;28;20088;-70
2022/08/09 06:44:34;;;;;;;8.90;1.75;;;24.50;48.40;23.70;102420.00;;;;5089005;28;20032;-70
2022/08/09 06:47:21;;;;;;;3.22;1.60;;;24.50;48.40;23.70;102423.00;;;;5099304;28;20483;-70
2022/08/09 06:50:08;;;;;;;3.33;1.35;;;24.60;48.50;23.70;102423.00;;;;5082152;28;20036;-71
2022/08/09 06:52:54;;;;;;;4.23;1.33;;;24.60;48.60;23.70;102427.00;;;;5095089;28;20076;-71
2022/08/09 06:55:40;;;;;;;2.72;1.40;;;24.60;48.50;23.70;102427.00;;;;5078861;28;20117;-71
2022/08/09 06:58:26;;;;;;;1.90;1.40;;;24.60;48.50;23.70;102427.00;;;;5100660;28;20035;-71
2022/08/09 07:01:12;;;;;;;2.22;1.48;;;24.60;48.50;23.70;102427.00;;;;5090847;28;20079;-71
2022/08/09 07:03:58;;;;;;;2.33;1.48;;;24.60;48.50;23.70;102427.00;;;;5080042;28;20190;-71
2022/08/09 07:06:44;;;;;;;1.88;1.02;;;24.60;48.40;23.70;102430.00;;;;5078008;28;20043;-71
2022/08/09 07:09:30;;;;;;;3.40;1.20;;;24.60;48.50;23.70;102431.00;;;;5084824;28;20149;-71
2022/08/09 07:12:16;;;;;;;2.45;1.25;;;24.60;48.40;23.70;102420.00;;;;5099081;28;20039;-71
2022/08/09 07:15:03;;;;;;;4.60;1.60;;;24.60;48.40;23.70;102430.00;;;;5088517;28;20028;-71
2022/08/09 07:17:50;;;;;;;1.60;1.35;;;24.60;48.40;23.70;102423.00;;;;5085626;28;20065;-71
2022/08/09 07:20:36;;;;;;;2.35;1.02;;;24.60;48.40;23.70;102428.00;;;;5095894;28;20036;-71
2022/08/09 07:23:22;;;;;;;1.55;1.13;;;24.60;48.40;23.70;102429.00;;;;5087748;28;20047;-71
2022/08/09 07:26:08;;;;;;;1.95;0.98;;;24.60;48.40;23.70;102436.00;;;;5085094;28;20485;-71
2022/08/09 07:28:54;;;;;;;1.70;1.05;;;24.60;48.40;23.70;102435.00;;;;5091381;28;20043;-71
2022/08/09 07:31:40;;;;;;;2.45;1.33;;;24.60;48.40;23.70;102433.00;;;;5089563;28;20474;-71
2022/08/09 07:34:26;;;;;;;1.67;1.10;;;24.70;48.40;23.70;102435.00;;;;5092865;28;20059;-71
2022/08/09 07:37:12;;;;;;;1.77;0.90;;;24.70;48.50;23.70;102442.00;;;;5089053;28;20251;-72
2022/08/09 07:39:59;;;;;;;1.98;1.00;;;24.60;48.40;23.70;102440.00;;;;5072390;28;20116;-71
2022/08/09 07:42:53;;;;;;;1.05;0.90;;;24.70;48.40;23.70;102438.00;;;;5095961;28;20044;-71
2022/08/09 07:45:39;;;;;;;2.00;0.95;;;24.60;48.40;23.70;102443.00;;;;5066746;28;20039;-71
2022/08/09 07:48:25;;;;;;;1.40;0.88;;;24.70;48.40;23.80;102449.00;;;;5093425;28;20405;-71
2022/08/09 07:51:11;;;;;;;1.55;0.80;;;24.70;48.30;23.80;102445.00;;;;5078607;28;20036;-71
2022/08/09 07:53:57;;;;;;;4.05;0.88;;;24.60;48.20;23.70;102439.00;;;;5085453;28;20031;-72
2022/08/09 07:56:43;;;;;;;1.08;0.98;;;24.70;48.30;23.80;102437.00;;;;5067328;28;20051;-71
2022/08/09 07:59:29;;;;;;;1.83;1.08;;;24.60;48.20;23.80;102455.00;;;;5093860;28;20040;-71
2022/08/09 08:02:15;;;;;;;2.15;1.05;;;24.70;48.20;23.80;102452.00;;;;5101032;28;20040;-71
2022/08/09 08:05:01;;;;;;;1.33;1.00;;;24.70;48.30;23.80;102443.00;;;;5089270;28;20405;-71
2022/08/09 08:07:48;;;;;;;1.65;1.17;;;24.70;48.20;23.80;102443.00;;;;5095866;28;20285;-72
2022/08/09 08:10:34;;;;;;;1.88;1.33;;;24.70;48.30;23.80;102440.00;;;;5083758;28;20159;-71
2022/08/09 08:13:20;;;;;;;1.60;1.20;;;24.70;48.30;23.80;102451.00;;;;5091823;28;20549;-71
2022/08/09 08:16:06;;;;;;;4.45;0.90;;;24.80;48.40;23.80;102449.00;;;;5079493;28;20032;-71
2022/08/09 08:18:52;;;;;;;1.55;0.98;;;24.70;48.30;23.80;102452.00;;;;5084098;28;20037;-71
2022/08/09 08:21:39;;;;;;;2.13;1.42;;;24.70;48.40;23.80;102450.00;;;;5092297;28;20093;-72
2022/08/09 08:24:25;;;;;;;3.28;0.90;;;24.70;48.30;23.80;102451.00;;;;5078396;28;20043;-71
2022/08/09 08:27:11;;;;;;;3.40;1.38;;;24.80;48.50;23.80;102450.00;;;;5090671;28;20040;-71
2022/08/09 08:29:57;;;;;;;2.25;1.20;;;24.70;48.40;23.80;102447.00;;;;5091217;28;20044;-71
2022/08/09 08:32:43;;;;;;;1.38;0.82;;;24.80;48.40;23.80;102446.00;;;;5094252;28;20046;-71
2022/08/09 08:35:29;;;;;;;1.90;1.20;;;24.80;48.40;23.80;102448.00;;;;5069094;28;20083;-71
2022/08/09 08:38:15;;;;;;;2.33;0.93;;;24.80;48.30;23.80;102451.00;;;;5092932;28;20400;-71
2022/08/09 08:41:01;;;;;;;2.83;1.30;;;24.80;48.40;23.80;102440.00;;;;5067500;28;20044;-71
2022/08/09 08:43:48;;;;;;;2.50;1.08;;;24.70;48.30;23.80;102438.00;;;;5076464;28;20404;-71
2022/08/09 08:46:40;;;;;;;2.42;0.90;;;24.80;48.30;23.80;102451.00;;;;5068757;28;20496;-71
2022/08/09 08:49:26;;;;;;;2.50;1.25;;;24.70;48.20;23.80;102443.00;;;;5061518;28;20040;-71
2022/08/09 08:52:12;;;;;;;3.30;1.10;;;24.70;48.20;23.80;102448.00;;;;5061097;28;20037;-72
2022/08/09 08:54:59;;;;;;;2.95;1.50;;;24.80;48.90;23.80;102452.00;;;;5066305;28;20469;-71
2022/08/09 08:57:45;;;;;;;2.90;1.50;;;24.80;48.30;23.80;102442.00;;;;5079527;28;20036;-71
2022/08/09 09:00:31;;;;;;;1.83;0.98;;;24.80;48.30;23.90;102450.00;;;;5089471;28;20055;-71
2022/08/09 09:03:17;;;;;;;2.08;1.00;;;24.80;48.20;23.90;102448.00;;;;5078492;28;20040;-71
2022/08/09 09:06:04;;;;;;;3.42;1.10;;;24.80;48.20;23.90;102443.00;;;;5057583;28;20051;-71
2022/08/09 09:08:50;;;;;;;3.07;1.20;;;24.80;48.10;23.90;102458.00;;;;5074225;28;20047;-71
2022/08/09 09:11:36;;;;;;;3.80;1.30;;;24.80;48.20;23.90;102453.00;;;;5081720;28;20093;-71
2022/08/09 09:14:23;;;;;;;1.83;1.10;;;24.80;48.20;23.90;102455.00;;;;5066202;28;20042;-71
2022/08/09 09:17:10;;;;;;;1.27;0.98;;;24.80;48.20;23.90;102462.00;;;;5040560;28;20500;-71
2022/08/09 09:19:56;;;;;;;2.05;1.15;;;24.80;48.10;23.90;102457.00;;;;5070888;28;20035;-71
2022/08/09 09:22:58;;;;;;;2.40;1.35;;;24.80;48.10;23.90;102468.00;;;;5085272;28;20033;-72
2022/08/09 09:25:44;;;;;;;5.22;0.90;;;24.80;48.10;23.90;102463.00;;;;5061145;28;20047;-71
2022/08/09 09:28:34;;;;;;;3.25;1.00;;;24.90;48.00;23.90;102455.00;;;;5047247;28;20105;-71
2022/08/09 09:31:21;;;;;;;1.45;0.98;;;24.80;48.10;23.90;102447.00;;;;5056944;28;20041;-71
2022/08/09 09:34:11;;;;;;;1.35;1.10;;;24.80;48.00;23.90;102453.00;;;;5090387;28;20390;-73
2022/08/09 09:36:58;;;;;;;2.85;0.90;;;24.80;48.10;23.90;102450.00;;;;5081616;28;20110;-75
2022/08/09 09:39:52;;;;;;;1.83;1.20;;;24.90;48.10;23.90;102454.00;;;;5096637;28;20074;-73
2022/08/09 09:42:57;;;;;;;1.50;0.98;;;24.90;48.20;23.90;102450.00;;;;5071842;28;20032;-74
2022/08/09 09:45:53;;;;;;;2.83;1.00;;;24.90;48.10;23.90;102446.00;;;;5094088;28;20055;-74
2022/08/09 09:48:40;;;;;;;1.77;0.98;;;24.90;48.10;23.90;102445.00;;;;5092820;28;20050;-73
2022/08/09 09:51:29;;;;;;;2.10;1.10;;;24.90;48.10;23.90;102445.00;;;;5060520;28;20054;-73
2022/08/09 09:54:17;;;;;;;2.53;1.35;;;24.90;48.10;23.90;102440.00;;;;5087339;28;20032;-73
2022/08/09 09:57:18;;;;;;;3.03;1.20;;;24.90;48.00;23.90;102437.00;;;;5080114;28;20039;-73
2022/08/09 10:00:05;;;;;;;2.92;1.23;;;24.90;48.10;23.90;102434.00;;;;5060387;28;20071;-73
2022/08/09 10:02:51;;;;;;;2.53;1.17;;;24.90;48.00;23.90;102431.00;;;;5065505;28;20043;-73
2022/08/09 10:05:57;;;;;;;3.38;1.33;;;25.00;48.00;23.90;102433.00;;;;5096093;28;20040;-74
2022/08/09 10:08:46;;;;;;;2.22;1.20;;;24.90;48.00;23.90;102433.00;;;;5076263;28;20059;-73
2022/08/09 10:11:32;;;;;;;2.20;2.00;;;24.90;47.90;23.90;102434.00;;;;5076805;28;20040;-74
2022/08/09 10:14:26;;;;;;;1.65;1.10;;;24.90;47.90;23.90;102443.00;;;;5080161;28;20068;-74
2022/08/09 10:17:13;;;;;;;1.60;1.27;;;25.00;48.10;23.90;102431.00;;;;5083388;28;20488;-74
2022/08/09 10:20:00;;;;;;;2.33;1.13;;;25.00;48.00;23.90;102428.00;;;;5068089;28;20039;-75
2022/08/09 10:22:48;;;;;;;3.65;1.40;;;24.80;47.80;24.00;102438.00;;;;5084353;28;20036;-73
2022/08/09 10:25:34;;;;;;;;;;;25.00;47.90;23.90;102437.00;;;;5089374;28;20044;-73
2022/08/09 10:28:20;;;;;;;1.73;1.05;;;25.00;47.90;23.90;102426.00;;;;5096489;28;19927;-73
2022/08/09 10:31:07;;;;;;;2.47;1.35;;;25.00;47.60;23.90;102439.00;;;;5075519;28;20044;-73
2022/08/09 10:33:53;;;;;;;1.35;1.05;;;25.00;47.90;23.90;102430.00;;;;5061877;28;20040;-73
2022/08/09 10:36:40;;;;;;;5.63;1.20;;;25.00;47.70;23.90;102431.00;;;;5094724;28;20040;-73
2022/08/09 10:39:26;;;;;;;2.03;1.20;;;25.00;47.70;24.00;102439.00;;;;5078058;28;20040;-74
2022/08/09 10:42:14;;;;;;;2.03;1.38;;;25.00;47.70;24.00;102430.00;;;;5080561;28;20774;-73
2022/08/09 10:45:07;;;;;;;2.85;1.15;;;25.00;47.60;24.00;102432.00;;;;5074576;28;20040;-73
2022/08/09 10:48:16;;;;;;;2.15;1.30;;;25.00;47.60;24.00;102436.00;;;;5097102;28;20044;-73
2022/08/09 10:51:37;;;;;;;1.15;1.00;;;25.00;47.60;24.00;102421.00;;;;5075564;28;20109;-73
2022/08/09 10:54:23;;;;;;;4.13;1.40;;;25.00;47.60;24.00;102429.00;;;;5068609;28;20040;-73
2022/08/09 10:57:13;;;;;;;2.37;1.10;;;25.00;47.50;24.00;102430.00;;;;5073132;28;20047;-73
2022/08/09 10:59:59;;;;;;;1.83;0.95;;;25.10;47.50;24.00;102429.00;;;;5080846;28;20036;-73
2022/08/09 11:02:46;;;;;;;1.42;1.10;;;25.10;47.60;24.00;102425.00;;;;5083069;28;20032;-73
2022/08/09 11:05:32;;;;;;;3.17;1.13;;;25.10;47.60;24.00;102439.00;;;;5077664;28;20040;-73
2022/08/09 11:08:41;;;;;;;3.17;1.00;;;25.10;47.50;24.00;102426.00;;;;5099830;28;20043;-73
2022/08/09 11:11:53;;;;;;;2.75;1.15;;;25.00;47.40;24.00;102432.00;;;;5089659;28;20043;-73
2022/08/09 11:14:50;;;;;;;1.10;0.90;;;25.10;47.50;24.00;102425.00;;;;5086375;28;20392;-73
2022/08/09 11:17:53;;;;;;;2.17;1.20;;;25.10;47.40;24.00;102434.00;;;;5089592;28;20036;-73
2022/08/09 11:20:46;;;;;;;1.90;0.95;;;25.10;47.30;24.00;102429.00;;;;5072140;28;20041;-73
2022/08/09 11:23:57;;;;;;;2.65;1.33;;;25.10;47.30;24.00;102418.00;;;;5105910;28;20071;-73
2022/08/09 11:26:44;;;;;;;2.88;1.20;;;25.10;47.40;24.00;102421.00;;;;5081403;28;20051;-73
2022/08/09 11:29:55;;;;;;;1.40;1.10;;;25.10;47.30;24.00;102406.00;;;;5068592;28;20048;-73
2022/08/09 11:33:00;;;;;;;1.52;1.15;;;25.10;47.30;24.00;102403.00;;;;5085073;28;20040;-73
2022/08/09 11:35:57;;;;;;;3.55;1.13;;;25.10;47.20;24.00;102411.00;;;;5065695;28;20036;-73
2022/08/09 11:38:43;;;;;;;2.40;1.05;;;25.10;47.20;24.00;102399.00;;;;5081102;28;20047;-74
2022/08/09 11:41:29;;;;;;;1.60;1.00;;;25.10;47.30;24.00;102409.00;;;;5057956;28;20040;-73
2022/08/09 11:44:16;;;;;;;3.33;1.27;;;25.10;47.20;24.00;102407.00;;;;5087555;28;20064;-72
2022/08/09 11:47:04;;;;;;;2.40;1.23;;;25.10;47.20;24.10;102401.00;;;;5079398;28;20307;-69
2022/08/09 11:50:01;;;;;;;1.38;1.20;;;25.10;47.20;24.00;102402.00;;;;5071384;28;20040;-67
2022/08/09 11:52:59;;;;;;;3.15;1.00;;;25.20;47.30;24.10;102397.00;;;;5092313;28;20076;-66
2022/08/09 11:55:45;;;;;;;;;;;25.10;47.20;24.00;102392.00;;;;5086668;28;20035;-67
2022/08/09 11:58:45;;;;;;;1.08;0.90;;;25.20;47.30;24.00;102394.00;;;;5086824;28;19912;-67
2022/08/09 12:01:35;;;;;;;3.50;2.70;;;25.20;47.10;24.10;102397.00;;;;5076307;28;20362;-67
2022/08/09 12:04:21;;;;;;;2.22;1.10;;;25.20;47.10;24.10;102384.00;;;;5095677;28;20488;-67
2022/08/09 12:07:08;;;;;;;1.95;1.42;;;25.20;47.10;24.10;102389.00;;;;5048338;28;20074;-67
2022/08/09 12:09:59;;;;;;;1.35;1.10;;;25.20;47.10;24.10;102389.00;;;;5069225;28;20043;-67
2022/08/09 12:12:46;;;;;;;2.72;1.10;;;25.20;47.00;24.10;102383.00;;;;5088454;28;20063;-67
2022/08/09 12:15:32;;;;;;;2.30;1.10;;;25.20;46.90;24.10;102384.00;;;;5076856;28;20120;-67
2022/08/09 12:18:18;;;;;;;3.45;1.17;;;25.20;46.90;24.10;102385.00;;;;5080000;28;20036;-66
2022/08/09 12:21:07;;;;;;;2.28;1.05;;;25.20;46.90;24.10;102382.00;;;;5061497;28;20048;-67
2022/08/09 12:23:53;;;;;;;2.05;0.88;;;25.20;46.80;24.10;102366.00;;;;5079717;28;20048;-67